Time;durP1;ratioP1;P1;durP2;ratioP2;P2;SDS_P1;SDS_P2;PMS_P1;PMS_P2;Temp;Humidity;BMP_temperature;BMP_pressure;BME280_temperature;BME280_humidity;BME280_pressure;Samples;Min_cycle;Max_cycle;Signal;HPM_P1;HPM_P2
2023/08/30 00:01:58;;;;;;;;;8.67;7.00;;;;;15.55;100.00;100938.44;5073462;27;45831;-74
2023/08/30 00:04:24;;;;;;;;;7.67;7.00;;;;;15.68;100.00;100944.66;5076020;27;45443;-75
2023/08/30 00:06:49;;;;;;;;;6.00;4.67;;;;;15.68;100.00;100942.00;5093734;27;45222;-74
2023/08/30 00:09:14;;;;;;;;;5.67;5.67;;;;;15.50;100.00;100924.56;5095865;27;45329;-75
2023/08/30 00:11:40;;;;;;;;;6.33;6.33;;;;;15.58;100.00;100928.44;5078739;27;45377;-75
2023/08/30 00:14:06;;;;;;;;;6.00;6.00;;;;;15.64;100.00;100927.16;5096608;27;45256;-74
2023/08/30 00:16:33;;;;;;;;;8.33;7.00;;;;;15.69;100.00;100937.53;5091142;27;45499;-74
2023/08/30 00:18:59;;;;;;;;;9.67;7.33;;;;;15.66;100.00;100937.72;5100548;27;45343;-75
2023/08/30 00:21:25;;;;;;;;;6.00;6.00;;;;;15.59;100.00;100922.16;5096282;27;45371;-74
2023/08/30 00:23:51;;;;;;;;;7.67;7.33;;;;;15.51;100.00;100902.28;5083005;27;45516;-74
2023/08/30 00:26:16;;;;;;;;;5.00;5.00;;;;;15.73;100.00;100931.91;5094128;27;46329;-74
2023/08/30 00:28:41;;;;;;;;;4.67;4.67;;;;;15.76;100.00;100928.16;5089788;27;45370;-74
2023/08/30 00:31:07;;;;;;;;;9.00;6.00;;;;;15.69;100.00;100897.53;5090278;27;45373;-74
2023/08/30 00:33:32;;;;;;;;;7.00;7.00;;;;;15.63;100.00;100882.81;5074314;27;45471;-75
2023/08/30 00:35:59;;;;;;;;;7.67;6.33;;;;;15.84;100.00;100910.69;5100949;27;46132;-75
2023/08/30 00:38:26;;;;;;;;;5.00;5.00;;;;;15.82;100.00;100898.41;5077557;27;46075;-75
2023/08/30 00:40:52;;;;;;;;;10.33;7.00;;;;;15.91;100.00;100922.66;5096130;27;45314;-75
2023/08/30 00:43:18;;;;;;;;;6.00;6.00;;;;;15.94;100.00;100905.59;5093251;27;45707;-75
2023/08/30 00:45:44;;;;;;;;;6.33;6.33;;;;;15.97;100.00;100908.91;5092630;27;46442;-74
2023/08/30 00:48:10;;;;;;;;;7.33;4.67;;;;;16.01;100.00;100898.88;5099439;27;45503;-74
2023/08/30 00:50:37;;;;;;;;;6.33;5.00;;;;;16.03;100.00;100897.81;5100577;27;45379;-75
2023/08/30 00:53:05;;;;;;;;;10.67;6.67;;;;;15.99;100.00;100891.00;5089771;27;45455;-75
2023/08/30 00:55:34;;;;;;;;;6.67;5.67;;;;;15.96;100.00;100874.34;5094230;27;46110;-74
2023/08/30 00:58:01;;;;;;;;;5.33;5.33;;;;;16.12;100.00;100905.22;5098698;27;45351;-74
2023/08/30 01:00:27;;;;;;;;;5.33;5.33;;;;;16.07;100.00;100875.31;5091814;27;45489;-74
2023/08/30 01:02:53;;;;;;;;;6.00;4.67;;;;;16.18;100.00;100887.91;5087782;27;45381;-75
2023/08/30 01:05:19;;;;;;;;;7.67;6.33;;;;;16.06;100.00;100870.94;5093148;27;46337;-75
2023/08/30 01:07:44;;;;;;;;;3.67;3.67;;;;;16.04;100.00;100861.31;5084096;27;45337;-74
2023/08/30 01:10:10;;;;;;;;;4.67;3.67;;;;;16.20;100.00;100887.81;5089482;27;45656;-75
2023/08/30 01:12:47;;;;;;;;;6.00;5.00;;;;;16.24;100.00;100876.81;5100830;27;45390;-75
2023/08/30 01:15:18;;;;;;;;;5.00;4.33;;;;;16.26;100.00;100880.25;5092029;27;46142;-74
2023/08/30 01:17:44;;;;;;;;;7.33;6.00;;;;;16.21;100.00;100871.69;5094554;27;45346;-74
2023/08/30 01:20:14;;;;;;;;;4.33;3.33;;;;;16.07;100.00;100842.44;5095786;27;45344;-75
2023/08/30 01:23:18;;;;;;;;;5.00;5.00;;;;;16.23;100.00;100845.72;5093433;27;45459;-75
2023/08/30 01:26:02;;;;;;;;;6.67;5.33;;;;;16.26;100.00;100866.03;5048206;28;46301;-74
2023/08/30 01:28:31;;;;;;;;;6.00;6.00;;;;;16.09;100.00;100828.03;5076971;28;46016;-75
2023/08/30 01:30:58;;;;;;;;;5.67;4.33;;;;;16.30;100.00;100855.03;5093915;27;45444;-75
2023/08/30 01:33:27;;;;;;;;;6.00;4.33;;;;;16.30;100.00;100855.03;5095992;27;45339;-74
2023/08/30 01:35:54;;;;;;;;;5.00;5.00;;;;;16.31;100.00;100858.56;5090821;27;45690;-75
2023/08/30 01:38:21;;;;;;;;;4.67;4.67;;;;;16.25;100.00;100840.31;5086176;27;45460;-75
2023/08/30 01:40:47;;;;;;;;;3.67;3.67;;;;;16.19;100.00;100827.41;5091881;27;45379;-75
2023/08/30 01:43:15;;;;;;;;;5.00;5.00;;;;;16.07;100.00;100805.94;5083280;27;45335;-75
2023/08/30 01:45:43;;;;;;;;;4.00;4.00;;;;;16.33;100.00;100837.97;5071968;27;47459;-74
2023/08/30 01:48:13;;;;;;;;;4.00;4.00;;;;;16.14;100.00;100809.03;5093503;27;45280;-74
2023/08/30 01:50:40;;;;;;;;;6.00;5.00;;;;;16.11;100.00;100809.25;5094421;27;45349;-75
2023/08/30 01:53:08;;;;;;;;;5.33;5.00;;;;;16.16;100.00;100810.63;5099610;27;45290;-74
2023/08/30 01:55:34;;;;;;;;;4.00;4.00;;;;;16.31;100.00;100835.41;5096710;27;46326;-75
2023/08/30 01:57:59;;;;;;;;;5.00;4.00;;;;;16.31;100.00;100838.06;5092649;27;45368;-75
2023/08/30 02:00:24;;;;;;;;;4.00;4.00;;;;;16.37;100.00;100847.44;5093182;27;45387;-75
2023/08/30 02:02:50;;;;;;;;;7.33;6.00;;;;;16.27;100.00;100817.03;5088542;27;45387;-75
2023/08/30 02:05:15;;;;;;;;;5.00;5.00;;;;;16.34;100.00;100829.84;5084101;27;46124;-75
2023/08/30 02:07:48;;;;;;;;;2.00;2.00;;;;;16.43;100.00;100834.53;5099493;27;45284;-75
2023/08/30 02:10:22;;;;;;;;;3.67;3.67;;;;;16.39;100.00;100834.88;5086025;27;45224;-74
2023/08/30 02:12:49;;;;;;;;;5.00;5.00;;;;;16.50;100.00;100835.78;5086616;27;45381;-74
2023/08/30 02:15:15;;;;;;;;;4.00;4.00;;;;;16.45;100.00;100829.09;5096283;27;45512;-75
2023/08/30 02:17:41;;;;;;;;;3.67;3.33;;;;;16.48;100.00;100812.84;5085933;27;45342;-75
2023/08/30 02:20:07;;;;;;;;;4.33;2.33;;;;;16.60;100.00;100833.34;5085112;27;45341;-75
2023/08/30 02:22:33;;;;;;;;;4.00;3.00;;;;;16.57;100.00;100825.56;5095331;27;45481;-75
2023/08/30 02:24:59;;;;;;;;;2.33;2.33;;;;;16.64;100.00;100829.50;5089968;27;46217;-75
2023/08/30 02:27:24;;;;;;;;;5.67;3.00;;;;;16.44;100.00;100798.00;5094910;27;45778;-74
2023/08/30 02:29:50;;;;;;;;;3.00;3.00;;;;;16.69;100.00;100829.19;5090403;27;45268;-75
2023/08/30 02:32:20;;;;;;;;;4.33;2.67;;;;;16.71;100.00;100827.25;5090149;27;45293;-75
2023/08/30 02:34:46;;;;;;;;;3.00;3.00;;;;;16.62;100.00;100802.91;5095324;27;45447;-75
2023/08/30 02:37:11;;;;;;;;;6.00;2.00;;;;;16.56;96.34;100783.78;5092093;27;45344;-75
2023/08/30 02:39:36;;;;;;;;;2.67;2.67;;;;;16.63;96.44;100785.06;5087650;27;45378;-74
2023/08/30 02:42:01;;;;;;;;;3.00;3.00;;;;;16.79;97.24;100811.50;5093104;27;45359;-75
2023/08/30 02:44:27;;;;;;;;;3.67;3.67;;;;;16.82;96.33;100813.97;5078913;28;45396;-75
2023/08/30 02:46:52;;;;;;;;;2.00;2.00;;;;;16.69;94.74;100789.97;5094383;27;45281;-75
2023/08/30 02:49:17;;;;;;;;;3.00;3.00;;;;;16.87;95.24;100806.47;5099373;27;45343;-74
2023/08/30 02:51:43;;;;;;;;;3.00;2.00;;;;;16.76;92.41;100795.69;5081496;27;45627;-75
2023/08/30 02:54:08;;;;;;;;;1.67;1.67;;;;;16.88;93.75;100805.50;5090691;27;46096;-75
2023/08/30 02:56:34;;;;;;;;;3.00;3.00;;;;;16.77;92.54;100797.41;5097050;27;45498;-75
2023/08/30 02:58:59;;;;;;;;;5.67;3.00;;;;;16.83;92.38;100813.00;5104159;27;45351;-75
2023/08/30 03:01:25;;;;;;;;;7.00;3.00;;;;;16.79;94.25;100798.16;5100141;27;45439;-75
2023/08/30 03:03:50;;;;;;;;;3.33;2.67;;;;;16.80;94.27;100798.06;5085974;27;46449;-75
2023/08/30 03:06:15;;;;;;;;;2.00;2.00;;;;;16.95;94.77;100815.63;5070491;27;45432;-75
2023/08/30 03:08:40;;;;;;;;;2.67;2.00;;;;;16.96;93.07;100814.66;5093846;27;45295;-74
2023/08/30 03:11:11;;;;;;;;;3.00;3.00;;;;;16.95;92.28;100820.13;5096856;27;45287;-75
2023/08/30 03:13:37;;;;;;;;;2.00;2.00;;;;;16.96;93.11;100819.16;5078028;27;46449;-75
2023/08/30 03:16:12;;;;;;;;;3.33;3.33;;;;;16.91;94.64;100802.63;5100409;27;45533;-75
2023/08/30 03:18:38;;;;;;;;;2.67;2.67;;;;;16.83;93.96;100788.94;5093435;27;45431;-75
2023/08/30 03:21:03;;;;;;;;;1.67;1.67;;;;;16.93;94.70;100806.00;5075397;28;46096;-74
2023/08/30 03:23:31;;;;;;;;;3.00;3.00;;;;;16.82;95.64;100784.59;5090268;27;45403;-74
2023/08/30 03:25:56;;;;;;;;;3.67;2.67;;;;;16.77;96.47;100774.25;5082590;27;45287;-75
2023/08/30 03:28:22;;;;;;;;;4.33;3.00;;;;;16.83;95.96;100781.78;5095415;27;46124;-74
2023/08/30 03:30:47;;;;;;;;;4.00;2.67;;;;;16.88;96.64;100781.47;5077482;28;45919;-75
2023/08/30 03:33:13;;;;;;;;;2.67;2.67;;;;;17.00;98.59;100800.13;5088617;27;48000;-75
2023/08/30 03:35:38;;;;;;;;;5.00;3.67;;;;;16.85;97.97;100771.84;5092927;27;45307;-74
2023/08/30 03:38:04;;;;;;;;;3.00;3.00;;;;;17.01;97.97;100807.19;5098416;27;45321;-75
2023/08/30 03:40:30;;;;;;;;;3.33;3.33;;;;;16.92;97.24;100783.78;5084054;27;45334;-74
2023/08/30 03:42:55;;;;;;;;;4.00;4.00;;;;;17.00;98.38;100799.25;5094639;27;45354;-75
2023/08/30 03:45:21;;;;;;;;;3.00;3.00;;;;;16.79;99.00;100755.41;5094538;27;45460;-75
2023/08/30 03:47:46;;;;;;;;;4.00;4.00;;;;;16.95;100.00;100782.72;5090684;27;45413;-75
2023/08/30 03:50:11;;;;;;;;;7.67;3.67;;;;;17.05;100.00;100795.28;5087855;27;45604;-75
2023/08/30 03:52:37;;;;;;;;;3.00;3.00;;;;;16.99;100.00;100785.03;5098185;27;45466;-75
2023/08/30 03:55:02;;;;;;;;;4.33;3.67;;;;;16.80;100.00;100749.97;5097047;27;45444;-75
2023/08/30 03:57:28;;;;;;;;;2.00;2.00;;;;;16.86;100.00;100762.88;5099922;27;45346;-75
2023/08/30 03:59:53;;;;;;;;;3.00;2.00;;;;;17.05;100.00;100792.59;5090828;27;45525;-74
2023/08/30 04:02:19;;;;;;;;;4.67;4.00;;;;;16.92;100.00;100775.78;5087018;27;45378;-75
2023/08/30 04:04:47;;;;;;;;;3.67;2.67;;;;;17.05;100.00;100792.59;5094494;27;45280;-75
2023/08/30 04:07:13;;;;;;;;;4.00;2.33;;;;;16.84;100.00;100751.47;5097950;27;45272;-74
2023/08/30 04:09:38;;;;;;;;;2.67;2.67;;;;;17.07;100.00;100780.00;5095817;27;45340;-74
2023/08/30 04:12:04;;;;;;;;;3.00;3.00;;;;;17.01;100.00;100767.09;5086154;27;45419;-75
2023/08/30 04:14:30;;;;;;;;;3.00;3.00;;;;;17.08;99.10;100776.34;5096048;27;45333;-74
2023/08/30 04:16:55;;;;;;;;;5.33;4.33;;;;;16.97;100.00;100756.75;5089594;27;45412;-75
2023/08/30 04:19:21;;;;;;;;;3.33;3.33;;;;;17.12;100.00;100782.31;5071550;27;45410;-75
2023/08/30 04:21:46;;;;;;;;;3.67;2.00;;;;;17.13;100.00;100776.00;5097508;27;45370;-75
2023/08/30 04:24:11;;;;;;;;;3.00;3.00;;;;;17.03;100.00;100759.81;5091254;27;45597;-74
2023/08/30 04:26:37;;;;;;;;;2.00;2.00;;;;;17.05;100.00;100763.22;5082864;27;45454;-74
2023/08/30 04:29:03;;;;;;;;;3.67;3.67;;;;;16.89;99.57;100727.06;5086686;27;45376;-75
2023/08/30 04:31:29;;;;;;;;;5.00;4.00;;;;;16.95;100.00;100742.66;5094231;27;45399;-74
2023/08/30 04:33:55;;;;;;;;;4.00;4.00;;;;;17.04;100.00;100760.66;5101486;27;44744;-75
2023/08/30 04:36:20;;;;;;;;;2.33;2.33;;;;;17.03;100.00;100741.09;5090867;27;45367;-75
2023/08/30 04:38:46;;;;;;;;;4.00;3.00;;;;;17.13;100.00;100752.81;5099133;27;45262;-75
2023/08/30 04:41:11;;;;;;;;;5.00;3.00;;;;;16.99;100.00;100730.75;5102646;27;45455;-75
2023/08/30 04:43:37;;;;;;;;;3.67;2.33;;;;;17.05;100.00;100733.81;5095292;27;45210;-74
2023/08/30 04:46:02;;;;;;;;;5.33;3.00;;;;;17.05;100.00;100738.31;5086246;27;45363;-75
2023/08/30 04:48:28;;;;;;;;;3.00;3.00;;;;;17.16;100.00;100757.06;5095008;27;45420;-75
2023/08/30 04:51:01;;;;;;;;;4.00;3.00;;;;;17.14;100.00;100751.00;5082980;27;45222;-75
2023/08/30 04:53:26;;;;;;;;;3.33;2.67;;;;;17.18;100.00;100749.78;5066935;28;45331;-74
2023/08/30 04:55:52;;;;;;;;;3.67;3.00;;;;;17.18;100.00;100757.78;5092779;27;45415;-74
2023/08/30 04:58:17;;;;;;;;;4.67;3.67;;;;;17.00;100.00;100729.78;5093879;27;45293;-74
2023/08/30 05:00:42;;;;;;;;;4.67;3.67;;;;;17.04;100.00;100728.59;5092444;27;46321;-74
2023/08/30 05:03:08;;;;;;;;;4.33;4.00;;;;;17.15;99.57;100750.00;5092654;27;45440;-75
2023/08/30 05:05:34;;;;;;;;;3.33;3.00;;;;;17.17;100.00;100754.28;5087543;27;45397;-75
2023/08/30 05:07:59;;;;;;;;;3.33;2.00;;;;;17.16;100.00;100741.88;5089969;27;45451;-75
2023/08/30 05:10:25;;;;;;;;;2.67;2.67;;;;;17.16;100.00;100754.41;5090800;27;45381;-75
2023/08/30 05:12:51;;;;;;;;;5.00;4.00;;;;;17.05;99.89;100730.28;5086663;27;45423;-75
2023/08/30 05:15:17;;;;;;;;;3.33;3.00;;;;;17.22;100.00;100751.25;5094014;27;45458;-75
2023/08/30 05:17:43;;;;;;;;;4.33;3.00;;;;;17.21;100.00;100759.41;5095706;27;45282;-75
2023/08/30 05:20:08;;;;;;;;;3.00;2.33;;;;;17.05;99.53;100725.78;5075490;28;47053;-75
2023/08/30 05:22:34;;;;;;;;;3.67;3.00;;;;;17.21;100.00;100752.25;5094585;27;45383;-75
2023/08/30 05:25:00;;;;;;;;;2.67;2.67;;;;;17.22;100.00;100747.72;5086393;27;45383;-75
2023/08/30 05:27:26;;;;;;;;;2.33;2.33;;;;;17.25;100.00;100752.84;5088883;27;45371;-75
2023/08/30 05:29:51;;;;;;;;;3.00;2.33;;;;;17.22;100.00;100751.25;5096149;27;46400;-75
2023/08/30 05:32:17;;;;;;;;;3.67;3.67;;;;;17.06;100.00;100721.31;5086257;27;45520;-75
2023/08/30 05:34:42;;;;;;;;;4.33;4.00;;;;;17.06;100.00;100726.66;5083402;27;45494;-75
2023/08/30 05:37:07;;;;;;;;;3.00;3.00;;;;;17.17;100.00;100754.28;5077910;27;45560;-75
2023/08/30 05:39:34;;;;;;;;;3.67;3.67;;;;;17.06;100.00;100730.19;5098483;27;45802;-75
2023/08/30 05:41:59;;;;;;;;;6.00;5.00;;;;;17.08;100.00;100741.59;5096498;27;45383;-75
2023/08/30 05:44:25;;;;;;;;;4.00;3.00;;;;;17.13;100.00;100746.59;5094798;27;45481;-74
2023/08/30 05:46:50;;;;;;;;;2.00;2.00;;;;;17.04;100.00;100736.63;5083787;27;45389;-75
2023/08/30 05:49:16;;;;;;;;;4.33;4.33;;;;;17.15;100.00;100764.22;5073445;27;49017;-74
2023/08/30 05:51:41;;;;;;;;;3.00;3.00;;;;;16.95;100.00;100742.66;5083184;27;45301;-75
2023/08/30 05:54:06;;;;;;;;;5.00;4.00;;;;;17.07;100.00;100753.28;5086243;27;45462;-75
2023/08/30 05:56:32;;;;;;;;;4.67;3.33;;;;;17.10;100.00;100757.53;5102042;27;45453;-74
2023/08/30 05:58:57;;;;;;;;;6.00;3.33;;;;;16.96;100.00;100744.34;5080486;27;47109;-75
2023/08/30 06:01:23;;;;;;;;;5.33;4.33;;;;;17.07;100.00;100761.28;5095070;27;45325;-75
2023/08/30 06:03:48;;;;;;;;;2.00;2.00;;;;;17.11;100.00;100769.94;5096513;27;45462;-75
2023/08/30 06:06:15;;;;;;;;;3.33;3.33;;;;;16.93;100.00;100732.06;5092912;27;45410;-75
2023/08/30 06:08:40;;;;;;;;;3.00;2.67;;;;;17.06;100.00;100750.69;5093504;27;45329;-75
2023/08/30 06:11:05;;;;;;;;;4.00;3.00;;;;;17.12;100.00;100764.47;5080008;27;45399;-75
2023/08/30 06:13:31;;;;;;;;;3.00;3.00;;;;;16.92;100.00;100733.03;5099600;27;45589;-75
2023/08/30 06:15:56;;;;;;;;;4.67;4.00;;;;;17.08;100.00;100759.47;5101324;27;45692;-75
2023/08/30 06:18:22;;;;;;;;;5.67;4.00;;;;;17.17;100.00;100761.44;5098754;27;45428;-75
2023/08/30 06:20:47;;;;;;;;;4.00;3.67;;;;;17.23;100.00;100762.81;5076660;27;45301;-75
2023/08/30 06:23:14;;;;;;;;;4.67;3.67;;;;;17.24;100.00;100772.53;5103809;27;45429;-75
2023/08/30 06:25:39;;;;;;;;;3.33;3.33;;;;;17.12;100.00;100750.25;5097897;27;45519;-75
2023/08/30 06:28:05;;;;;;;;;4.67;4.67;;;;;17.17;100.00;100746.28;5077837;28;47157;-75
2023/08/30 06:30:30;;;;;;;;;4.00;3.00;;;;;17.32;100.00;100772.78;5089028;27;45304;-75
2023/08/30 06:32:57;;;;;;;;;5.00;3.00;;;;;17.18;100.00;100739.94;5083317;27;45431;-75
2023/08/30 06:35:22;;;;;;;;;4.00;3.00;;;;;17.32;100.00;100754.09;5094049;27;45474;-75
2023/08/30 06:37:48;;;;;;;;;4.00;4.00;;;;;17.22;100.00;100731.69;5079328;27;46140;-75
2023/08/30 06:40:13;;;;;;;;;2.67;2.67;;;;;17.39;100.00;100747.31;5087115;27;45343;-74
2023/08/30 06:42:39;;;;;;;;;3.67;3.67;;;;;17.51;100.00;100768.59;5088250;27;45537;-75
2023/08/30 06:45:05;;;;;;;;;4.00;4.00;;;;;17.45;100.00;100754.84;5086300;27;45538;-75
2023/08/30 06:47:30;;;;;;;;;6.00;4.00;;;;;17.42;100.00;100747.94;5095594;27;46559;-76
2023/08/30 06:49:55;;;;;;;;;6.33;4.00;;;;;17.57;100.00;100781.53;5093504;27;45353;-75
2023/08/30 06:52:21;;;;;;;;;4.00;3.00;;;;;17.47;100.00;100764.47;5095099;27;45657;-75
2023/08/30 06:54:46;;;;;;;;;4.00;3.33;;;;;17.34;100.00;100754.84;5084965;27;45238;-75
2023/08/30 06:57:12;;;;;;;;;4.33;3.00;;;;;17.23;100.00;100754.78;5066179;27;48144;-75
2023/08/30 06:59:37;;;;;;;;;1.00;1.00;;;;;17.34;100.00;100774.38;5098659;27;45451;-75
2023/08/30 07:02:03;;;;;;;;;2.00;2.00;;;;;17.28;100.00;100766.81;5088572;27;45673;-75
2023/08/30 07:04:28;;;;;;;;;3.00;2.00;;;;;17.43;100.00;100786.22;5098048;27;46314;-75
2023/08/30 07:06:54;;;;;;;;;3.00;3.00;;;;;17.41;100.00;100788.13;5097614;27;45519;-75
2023/08/30 07:09:19;;;;;;;;;2.33;2.00;;;;;17.42;100.00;100792.53;5068944;27;45440;-75
2023/08/30 07:11:45;;;;;;;;;2.33;2.00;;;;;17.40;100.00;100784.63;5098862;27;45257;-75
2023/08/30 07:14:12;;;;;;;;;2.67;2.67;;;;;17.35;100.00;100785.94;5089897;27;45386;-75
2023/08/30 07:16:38;;;;;;;;;4.00;2.67;;;;;17.44;100.00;100788.75;5084497;27;45933;-75
2023/08/30 07:19:03;;;;;;;;;2.00;2.00;;;;;17.48;100.00;100778.69;5092862;27;45707;-75
2023/08/30 07:21:29;;;;;;;;;2.00;2.00;;;;;17.49;100.00;100785.75;5092252;27;45422;-76
2023/08/30 07:23:54;;;;;;;;;3.00;3.00;;;;;17.50;100.00;100782.13;5086312;27;45765;-75
2023/08/30 07:26:20;;;;;;;;;4.33;3.00;;;;;17.57;100.00;100778.88;5097689;27;45362;-75
2023/08/30 07:28:45;;;;;;;;;3.00;2.33;;;;;17.62;100.00;100778.53;5084014;27;45333;-75
2023/08/30 07:31:14;;;;;;;;;2.00;1.67;;;;;17.68;100.00;100780.72;5077999;27;45451;-75
2023/08/30 07:33:39;;;;;;;;;2.00;2.00;;;;;17.62;100.00;100760.66;5090116;27;45319;-75
2023/08/30 07:36:05;;;;;;;;;2.33;2.33;;;;;17.79;100.00;100774.56;5080420;27;48108;-75
2023/08/30 07:38:31;;;;;;;;;1.33;1.33;;;;;17.81;100.00;100769.91;5083129;27;45388;-75
2023/08/30 07:40:56;;;;;;;;;1.33;1.33;;;;;17.93;100.00;100788.53;5087415;27;45370;-75
2023/08/30 07:43:21;;;;;;;;;5.00;3.00;;;;;17.99;100.00;100776.53;5084470;27;45511;-75
2023/08/30 07:45:47;;;;;;;;;3.33;1.33;;;;;18.02;100.00;100773.63;5098166;27;46205;-74
2023/08/30 07:48:12;;;;;;;;;1.33;1.33;;;;;18.08;100.00;100779.34;5090435;27;45317;-75
2023/08/30 07:50:38;;;;;;;;;2.00;2.00;;;;;17.98;100.00;100762.28;5091079;27;45389;-75
2023/08/30 07:53:03;;;;;;;;;2.00;2.00;;;;;18.12;100.00;100783.47;5086789;27;45416;-74
2023/08/30 07:55:28;;;;;;;;;2.00;2.00;;;;;18.11;100.00;100787.13;5089171;27;46453;-75
2023/08/30 07:57:54;;;;;;;;;3.00;2.00;;;;;17.93;100.00;100767.13;5088559;27;45465;-75
2023/08/30 08:00:19;;;;;;;;;1.00;1.00;;;;;18.08;100.00;100773.13;5090164;27;44788;-75
2023/08/30 08:02:44;;;;;;;;;1.67;1.67;;;;;18.28;98.54;100782.25;5102057;27;45306;-74
2023/08/30 08:05:10;;;;;;;;;1.00;1.00;;;;;18.36;99.73;100777.97;5082869;27;45958;-75
2023/08/30 08:07:40;;;;;;;;;1.67;1.67;;;;;18.47;96.67;100788.72;5084276;27;45277;-75
2023/08/30 08:10:06;;;;;;;;;2.00;2.00;;;;;18.40;97.15;100759.84;5084062;27;45584;-75
2023/08/30 08:12:32;;;;;;;;;3.33;2.00;;;;;18.36;98.34;100737.81;5101570;27;45638;-75
2023/08/30 08:14:58;;;;;;;;;2.00;2.00;;;;;18.45;94.78;100761.22;5098556;27;45395;-75
2023/08/30 08:17:23;;;;;;;;;5.33;4.00;;;;;18.48;92.96;100752.91;5092502;27;45403;-75
2023/08/30 08:19:48;;;;;;;;;7.00;2.33;;;;;18.72;93.58;100779.56;5101666;27;45407;-75
2023/08/30 08:22:14;;;;;;;;;3.00;2.00;;;;;18.86;91.28;100776.63;5090595;27;45629;-74
2023/08/30 08:24:39;;;;;;;;;4.00;3.00;;;;;19.01;85.29;100791.41;5094381;27;47268;-75
2023/08/30 08:27:05;;;;;;;;;3.67;3.67;;;;;19.06;85.40;100786.56;5096493;27;45341;-75
2023/08/30 08:29:31;;;;;;;;;3.67;3.67;;;;;19.25;84.15;100801.97;5088739;27;45457;-75
2023/08/30 08:31:56;;;;;;;;;3.00;3.00;;;;;19.25;80.79;100788.53;5091908;27;45472;-75
2023/08/30 08:34:22;;;;;;;;;2.67;2.00;;;;;19.25;82.51;100789.41;5101518;27;45219;-75
2023/08/30 08:36:47;;;;;;;;;3.00;3.00;;;;;19.13;81.93;100760.94;5073288;27;45362;-75
2023/08/30 08:39:14;;;;;;;;;2.00;2.00;;;;;19.28;83.37;100772.19;5099389;27;45504;-74
2023/08/30 08:41:42;;;;;;;;;2.00;2.00;;;;;19.64;79.85;100795.09;5099421;27;45284;-74
2023/08/30 08:44:08;;;;;;;;;2.00;2.00;;;;;19.81;78.02;100770.38;5092163;27;46442;-75
2023/08/30 08:46:39;;;;;;;;;2.00;2.00;;;;;20.02;76.74;100800.75;5081580;27;46016;-75
2023/08/30 08:49:17;;;;;;;;;2.33;2.33;;;;;20.03;76.20;100783.63;5091767;27;45381;-75
2023/08/30 08:51:43;;;;;;;;;2.00;1.00;;;;;20.12;75.92;100793.56;5081229;27;45722;-75
2023/08/30 08:54:10;;;;;;;;;5.00;1.33;;;;;20.08;75.43;100777.88;5082836;27;48430;-75
2023/08/30 08:56:36;;;;;;;;;3.67;2.00;;;;;20.27;72.16;100791.41;5102573;27;45361;-75
2023/08/30 08:59:03;;;;;;;;;3.00;1.00;;;;;20.06;66.11;100777.13;5091865;27;45390;-75
2023/08/30 09:01:29;;;;;;;;;3.00;2.00;;;;;20.01;67.53;100776.69;5082784;27;45247;-75
2023/08/30 09:03:54;;;;;;;;;2.33;2.00;;;;;20.12;67.97;100792.75;5093823;27;48220;-75
2023/08/30 09:06:22;;;;;;;;;1.00;1.00;;;;;20.29;66.12;100794.81;5083296;27;45473;-76
2023/08/30 09:08:47;;;;;;;;;3.67;1.33;;;;;20.20;65.49;100785.69;5093795;27;45406;-75
2023/08/30 09:11:13;;;;;;;;;2.67;2.67;;;;;20.29;67.57;100788.63;5091102;27;45315;-75
2023/08/30 09:13:38;;;;;;;;;2.00;2.00;;;;;20.50;68.52;100792.94;5084428;27;48022;-75
2023/08/30 09:16:12;;;;;;;;;2.67;1.00;;;;;20.45;66.84;100770.16;5066674;28;45473;-75
2023/08/30 09:18:37;;;;;;;;;2.00;1.00;;;;;20.65;66.54;100791.56;5094704;27;45384;-75
2023/08/30 09:21:07;;;;;;;;;1.00;1.00;;;;;20.74;64.37;100789.91;5075511;27;45508;-75
2023/08/30 09:23:33;;;;;;;;;0.67;0.67;;;;;20.82;66.95;100794.56;5090372;27;46335;-75
2023/08/30 09:25:59;;;;;;;;;3.00;1.00;;;;;20.72;63.25;100778.41;5080677;27;45462;-75
2023/08/30 09:28:25;;;;;;;;;2.00;2.00;;;;;20.91;63.63;100789.22;5100579;27;45409;-75
2023/08/30 09:30:51;;;;;;;;;3.00;3.00;;;;;20.87;57.72;100786.97;5104496;27;45372;-75
2023/08/30 09:33:21;;;;;;;;;3.00;1.33;;;;;21.06;58.44;100800.44;5088324;27;45369;-75
2023/08/30 09:35:47;;;;;;;;;2.33;1.00;;;;;21.01;54.82;100789.22;5084260;27;45277;-75
2023/08/30 09:38:19;;;;;;;;;2.33;2.00;;;;;21.05;57.02;100794.19;5084695;27;45382;-75
2023/08/30 09:40:45;;;;;;;;;1.00;1.00;;;;;21.01;57.23;100779.31;5084306;27;45477;-75
2023/08/30 09:43:11;;;;;;;;;2.00;2.00;;;;;21.03;57.76;100784.56;5086308;27;45726;-74
2023/08/30 09:45:37;;;;;;;;;2.00;2.00;;;;;21.13;59.10;100793.53;5091875;27;45283;-74
2023/08/30 09:48:04;;;;;;;;;1.33;1.00;;;;;20.98;56.06;100789.50;5078500;27;45217;-74
2023/08/30 09:50:34;;;;;;;;;2.00;2.00;;;;;20.78;56.14;100767.97;5090019;27;45561;-74
2023/08/30 09:53:10;;;;;;;;;2.00;2.00;;;;;20.87;56.08;100790.50;5082923;27;45880;-74
2023/08/30 09:55:36;;;;;;;;;3.33;2.00;;;;;20.77;56.24;100762.75;5083326;27;45316;-74
2023/08/30 09:58:04;;;;;;;;;4.00;2.33;;;;;21.01;55.24;100789.22;5091874;27;45324;-74
2023/08/30 10:00:30;;;;;;;;;2.00;2.00;;;;;21.20;55.18;100779.38;5092218;27;45516;-73
2023/08/30 10:02:58;;;;;;;;;5.00;2.00;;;;;21.35;54.98;100770.88;5095854;27;45494;-74
2023/08/30 10:05:24;;;;;;;;;2.00;2.00;;;;;21.56;55.04;100790.44;5098224;27;45300;-73
2023/08/30 10:07:52;;;;;;;;;4.00;3.00;;;;;21.61;52.63;100796.22;5066288;27;45398;-74
2023/08/30 10:10:18;;;;;;;;;1.00;1.00;;;;;21.56;53.53;100785.88;5085986;27;45212;-74
2023/08/30 10:12:46;;;;;;;;;3.00;2.33;;;;;21.60;55.12;100775.66;5099417;27;45343;-74
2023/08/30 10:15:11;;;;;;;;;2.00;2.00;;;;;21.58;52.44;100774.97;5094072;27;45497;-74
2023/08/30 10:17:41;;;;;;;;;2.67;2.67;;;;;21.70;52.88;100796.22;5088007;27;45339;-74
2023/08/30 10:20:07;;;;;;;;;1.00;1.00;;;;;21.60;52.64;100787.28;5092291;27;45556;-74
2023/08/30 10:22:36;;;;;;;;;2.00;2.00;;;;;21.67;54.17;100792.97;5095604;27;47859;-74
2023/08/30 10:25:06;;;;;;;;;2.00;1.00;;;;;21.53;51.55;100771.88;5081016;27;45774;-73
2023/08/30 10:27:33;;;;;;;;;4.00;1.00;;;;;21.67;51.18;100807.28;5095917;27;45321;-73
2023/08/30 10:30:03;;;;;;;;;2.00;2.00;;;;;21.70;50.98;100798.91;5087399;27;45424;-74
2023/08/30 10:32:28;;;;;;;;;2.00;1.00;;;;;21.68;52.28;100779.38;5079055;27;47348;-73
2023/08/30 10:34:54;;;;;;;;;3.33;1.00;;;;;21.56;51.77;100758.13;5099335;27;45415;-74
2023/08/30 10:37:25;;;;;;;;;3.33;1.33;;;;;21.75;52.50;100785.03;5089288;27;45379;-74
2023/08/30 10:39:51;;;;;;;;;1.00;1.00;;;;;21.85;52.66;100791.25;5085568;27;45423;-74
2023/08/30 10:42:17;;;;;;;;;1.67;1.33;;;;;21.58;51.92;100743.53;5097736;27;45838;-74
2023/08/30 10:44:52;;;;;;;;;2.00;2.00;;;;;21.71;51.73;100787.16;5070670;28;45373;-74
2023/08/30 10:47:19;;;;;;;;;2.33;2.00;;;;;21.76;52.91;100754.38;5091618;27;45342;-74
2023/08/30 10:49:47;;;;;;;;;1.00;1.00;;;;;22.02;53.81;100779.72;5092581;27;45427;-74
2023/08/30 10:52:12;;;;;;;;;4.33;2.00;;;;;21.90;51.20;100780.91;5090384;27;46373;-74
2023/08/30 10:54:38;;;;;;;;;2.00;2.00;;;;;21.74;52.41;100773.41;5084290;27;45443;-74
2023/08/30 10:57:04;;;;;;;;;1.00;1.00;;;;;21.89;54.09;100770.25;5078612;27;45353;-74
2023/08/30 10:59:29;;;;;;;;;3.00;1.33;;;;;21.98;52.70;100783.72;5091656;27;45225;-74
2023/08/30 11:01:58;;;;;;;;;1.00;1.00;;;;;21.79;51.46;100795.34;5088148;27;46074;-74
2023/08/30 11:04:24;;;;;;;;;2.00;2.00;;;;;21.56;51.07;100771.59;5074684;27;45415;-74
2023/08/30 11:06:51;;;;;;;;;1.00;1.00;;;;;21.73;52.01;100790.53;5088617;27;45312;-74
2023/08/30 11:09:21;;;;;;;;;3.67;2.00;;;;;21.86;52.66;100781.31;5084055;27;45791;-74
2023/08/30 11:11:48;;;;;;;;;3.67;2.67;;;;;22.01;53.44;100777.19;5096440;27;45550;-74
2023/08/30 11:14:13;;;;;;;;;1.67;1.67;;;;;21.83;53.33;100755.50;5082331;27;45391;-74
2023/08/30 11:16:39;;;;;;;;;3.00;3.00;;;;;22.09;53.48;100769.22;5098967;27;45613;-74